Time;durP1;ratioP1;P1;durP2;ratioP2;P2;SDS_P1;SDS_P2;PMS_P1;PMS_P2;Temp;Humidity;BMP_temperature;BMP_pressure;BME280_temperature;BME280_humidity;BME280_pressure;Samples;Min_cycle;Max_cycle;Signal;HPM_P1;HPM_P2
2021/06/21 00:01:53;;;;;;;12.60;4.40;;;;;;;;;;4889858;29;20040;-77
2021/06/21 00:04:38;;;;;;;10.20;3.25;;;;;;;;;;4909422;29;20546;-78
2021/06/21 00:07:23;;;;;;;7.20;2.55;;;;;;;;;;4890766;29;20107;-77
2021/06/21 00:10:10;;;;;;;12.20;2.35;;;;;;;;;;4892548;29;20040;-77
2021/06/21 00:12:55;;;;;;;10.80;2.40;;;;;;;;;;4890518;29;20032;-77
2021/06/21 00:15:40;;;;;;;8.20;2.05;;;;;;;;;;4892923;29;20271;-77
2021/06/21 00:18:26;;;;;;;6.53;2.28;;;;;;;;;;4891364;29;20395;-76
2021/06/21 00:21:11;;;;;;;9.52;2.58;;;;;;;;;;4893392;29;20111;-76
2021/06/21 00:23:56;;;;;;;10.43;2.28;;;;;;;;;;4893780;29;20403;-77
2021/06/21 00:26:41;;;;;;;10.73;2.85;;;;;;;;;;4891223;29;20016;-76
2021/06/21 00:29:27;;;;;;;10.60;2.42;;;;;;;;;;4893822;29;20160;-76
2021/06/21 00:32:12;;;;;;;4.78;2.28;;;;;;;;;;4890958;29;20052;-76
2021/06/21 00:34:57;;;;;;;13.52;2.60;;;;;;;;;;4880813;29;20558;-76
2021/06/21 00:37:42;;;;;;;6.05;2.60;;;;;;;;;;4891008;29;21328;-76
2021/06/21 00:40:28;;;;;;;10.52;2.63;;;;;;;;;;4904381;29;20530;-76
2021/06/21 00:43:13;;;;;;;8.70;2.45;;;;;;;;;;4894454;29;20032;-76
2021/06/21 00:45:58;;;;;;;8.50;2.08;;;;;;;;;;4890912;29;20597;-76
2021/06/21 00:48:43;;;;;;;10.13;2.45;;;;;;;;;;4890283;29;20471;-76
2021/06/21 00:51:29;;;;;;;7.32;2.33;;;;;;;;;;4895200;29;20031;-76
2021/06/21 00:54:14;;;;;;;10.63;2.58;;;;;;;;;;4892618;29;20043;-77
2021/06/21 00:57:02;;;;;;;8.27;2.17;;;;;;;;;;4890312;29;20717;-77
2021/06/21 00:59:48;;;;;;;7.82;2.08;;;;;;;;;;4886994;29;20407;-76
2021/06/21 01:02:33;;;;;;;9.85;2.67;;;;;;;;;;4894653;29;20020;-77
2021/06/21 01:05:20;;;;;;;7.55;2.38;;;;;;;;;;4891302;29;20456;-76
2021/06/21 01:08:06;;;;;;;10.82;2.75;;;;;;;;;;4906748;29;20024;-77
2021/06/21 01:10:52;;;;;;;8.18;2.63;;;;;;;;;;4894253;29;20028;-78
2021/06/21 01:13:56;;;;;;;10.23;2.67;;;;;;;;;;4893699;29;20127;-77
2021/06/21 01:16:48;;;;;;;6.25;2.22;;;;;;;;;;4892108;29;20025;-77
2021/06/21 01:19:52;;;;;;;12.00;2.60;;;;;;;;;;4888435;29;20020;-77
2021/06/21 01:22:43;;;;;;;9.65;2.30;;;;;;;;;;4889794;29;20376;-77
2021/06/21 01:25:34;;;;;;;10.27;2.58;;;;;;;;;;4890943;29;20496;-77
2021/06/21 01:28:25;;;;;;;9.70;2.33;;;;;;;;;;4895541;29;20040;-77
2021/06/21 01:31:15;;;;;;;10.27;2.35;;;;;;;;;;4891541;29;20087;-77
2021/06/21 01:34:01;;;;;;;12.55;2.97;;;;;;;;;;4896577;29;20060;-77
2021/06/21 01:36:48;;;;;;;9.20;2.10;;;;;;;;;;4893372;29;20035;-77
2021/06/21 01:39:34;;;;;;;7.95;2.38;;;;;;;;;;4892029;29;20028;-77
2021/06/21 01:42:20;;;;;;;9.38;3.15;;;;;;;;;;4893988;29;20492;-77
2021/06/21 01:45:07;;;;;;;14.98;2.35;;;;;;;;;;4891212;29;20040;-76
2021/06/21 01:47:53;;;;;;;11.40;2.53;;;;;;;;;;4892989;29;20108;-76
2021/06/21 01:50:39;;;;;;;9.23;2.42;;;;;;;;;;4906679;29;20517;-77
2021/06/21 01:53:26;;;;;;;7.90;2.17;;;;;;;;;;4894468;29;20028;-76
2021/06/21 01:56:14;;;;;;;9.00;3.33;;;;;;;;;;4887278;29;20440;-76
2021/06/21 01:59:02;;;;;;;8.38;1.98;;;;;;;;;;4893529;29;20211;-76
2021/06/21 02:01:47;;;;;;;9.05;2.10;;;;;;;;;;4890732;29;20087;-76
2021/06/21 02:04:34;;;;;;;9.88;2.50;;;;;;;;;;4896000;29;20088;-77
2021/06/21 02:07:20;;;;;;;13.75;2.63;;;;;;;;;;4886737;29;20060;-77
2021/06/21 02:10:06;;;;;;;10.18;2.67;;;;;;;;;;4905352;29;20028;-76
2021/06/21 02:12:52;;;;;;;10.52;2.53;;;;;;;;;;4891778;29;20031;-76
2021/06/21 02:15:37;;;;;;;11.43;2.38;;;;;;;;;;4901126;29;20103;-76
2021/06/21 02:18:22;;;;;;;11.00;2.80;;;;;;;;;;4890749;29;20157;-76
2021/06/21 02:21:08;;;;;;;8.75;2.20;;;;;;;;;;4892308;29;20054;-77
2021/06/21 02:23:53;;;;;;;11.07;3.28;;;;;;;;;;4890816;29;20052;-78
2021/06/21 02:26:39;;;;;;;9.48;2.65;;;;;;;;;;4893447;29;20119;-76
2021/06/21 02:29:26;;;;;;;10.95;2.35;;;;;;;;;;4892595;29;20024;-77
2021/06/21 02:32:12;;;;;;;14.05;2.63;;;;;;;;;;4890374;29;20172;-77
2021/06/21 02:34:57;;;;;;;15.48;3.08;;;;;;;;;;4894736;29;20038;-78
2021/06/21 02:37:43;;;;;;;7.10;2.85;;;;;;;;;;4891976;29;20048;-77
2021/06/21 02:40:28;;;;;;;14.25;2.60;;;;;;;;;;4891409;29;20036;-78
2021/06/21 02:43:13;;;;;;;9.30;2.90;;;;;;;;;;4889914;29;20048;-77
2021/06/21 02:45:58;;;;;;;6.68;2.10;;;;;;;;;;4896018;29;20039;-77
2021/06/21 02:48:44;;;;;;;10.77;2.22;;;;;;;;;;4888341;29;20033;-76
2021/06/21 02:51:31;;;;;;;10.65;3.47;;;;;;;;;;4893447;29;20076;-76
2021/06/21 02:54:22;;;;;;;11.05;2.60;;;;;;;;;;4896637;29;20465;-77
2021/06/21 02:57:19;;;;;;;7.95;2.67;;;;;;;;;;4896423;29;20031;-77
2021/06/21 03:00:05;;;;;;;7.80;2.22;;;;;;;;;;4893497;29;20384;-78
2021/06/21 03:02:50;;;;;;;11.50;2.90;;;;;;;;;;4893920;29;20027;-77
2021/06/21 03:05:37;;;;;;;14.13;2.63;;;;;;;;;;4890468;29;20622;-76
2021/06/21 03:08:23;;;;;;;10.35;2.90;;;;;;;;;;4897254;29;20380;-76
2021/06/21 03:11:08;;;;;;;13.60;3.10;;;;;;;;;;4897726;29;20032;-76
2021/06/21 03:13:54;;;;;;;9.00;2.35;;;;;;;;;;4896448;29;20359;-76
2021/06/21 03:16:41;;;;;;;14.30;3.25;;;;;;;;;;4895301;29;20501;-76
2021/06/21 03:19:27;;;;;;;9.30;3.47;;;;;;;;;;4896503;29;20024;-76
2021/06/21 03:22:12;;;;;;;15.30;2.97;;;;;;;;;;4892177;29;20035;-76
2021/06/21 03:24:57;;;;;;;8.95;2.90;;;;;;;;;;4890005;29;20039;-76
2021/06/21 03:27:43;;;;;;;7.53;2.88;;;;;;;;;;4892093;29;20407;-75
2021/06/21 03:30:28;;;;;;;10.27;2.97;;;;;;;;;;4893658;29;20020;-75
2021/06/21 03:33:13;;;;;;;13.30;2.83;;;;;;;;;;4896328;29;20128;-75
2021/06/21 03:35:58;;;;;;;12.20;3.40;;;;;;;;;;4894947;29;21106;-76
2021/06/21 03:38:44;;;;;;;11.68;2.47;;;;;;;;;;4897012;29;20403;-76
2021/06/21 03:41:29;;;;;;;10.60;2.53;;;;;;;;;;4886860;29;20031;-77
2021/06/21 03:44:14;;;;;;;11.27;2.90;;;;;;;;;;4891150;29;20091;-76
2021/06/21 03:46:59;;;;;;;12.68;3.10;;;;;;;;;;4902200;29;20538;-77
2021/06/21 03:49:45;;;;;;;9.48;2.70;;;;;;;;;;4899348;29;20823;-76
2021/06/21 03:52:31;;;;;;;10.50;2.58;;;;;;;;;;4891923;29;20021;-77
2021/06/21 03:55:16;;;;;;;7.13;2.35;;;;;;;;;;4889372;29;20044;-76
2021/06/21 03:58:01;;;;;;;10.43;2.60;;;;;;;;;;4894192;29;20179;-77
2021/06/21 04:00:50;;;;;;;10.27;3.03;;;;;;;;;;4896413;29;20050;-77
2021/06/21 04:03:35;;;;;;;10.77;2.97;;;;;;;;;;4910734;29;20048;-76
2021/06/21 04:06:21;;;;;;;10.48;2.53;;;;;;;;;;4892618;29;20032;-76
2021/06/21 04:09:06;;;;;;;10.75;2.88;;;;;;;;;;4896885;29;20475;-77
2021/06/21 04:11:51;;;;;;;11.48;2.90;;;;;;;;;;4904890;29;20063;-75
2021/06/21 04:14:37;;;;;;;9.20;2.80;;;;;;;;;;4897937;29;20032;-76
2021/06/21 04:17:22;;;;;;;12.23;2.78;;;;;;;;;;4893480;29;20115;-78
2021/06/21 04:20:11;;;;;;;11.40;2.40;;;;;;;;;;4892679;29;20024;-76
2021/06/21 04:22:57;;;;;;;13.43;3.88;;;;;;;;;;4906510;29;20031;-76
2021/06/21 04:25:42;;;;;;;10.45;2.72;;;;;;;;;;4897349;29;20040;-77
2021/06/21 04:28:28;;;;;;;12.02;3.28;;;;;;;;;;4895508;29;20156;-76
2021/06/21 04:31:13;;;;;;;13.25;3.20;;;;;;;;;;4892774;29;20098;-76
2021/06/21 04:33:58;;;;;;;10.50;2.47;;;;;;;;;;4875473;29;20032;-77
2021/06/21 04:36:44;;;;;;;10.48;2.60;;;;;;;;;;4875801;29;20059;-77
2021/06/21 04:39:29;;;;;;;13.88;3.90;;;;;;;;;;4878125;29;20025;-76
2021/06/21 04:42:14;;;;;;;9.85;2.65;;;;;;;;;;4872576;29;20037;-76
2021/06/21 04:44:59;;;;;;;9.00;3.28;;;;;;;;;;4875280;29;20112;-77
2021/06/21 04:47:45;;;;;;;9.70;2.30;;;;;;;;;;4873405;29;20048;-76
2021/06/21 04:50:31;;;;;;;10.85;2.00;;;;;;;;;;4887816;29;20536;-77
2021/06/21 04:53:16;;;;;;;12.48;2.53;;;;;;;;;;4875624;29;20067;-77
2021/06/21 04:56:01;;;;;;;14.82;3.17;;;;;;;;;;4873915;29;20440;-76
2021/06/21 04:58:46;;;;;;;8.50;2.70;;;;;;;;;;4875112;29;20115;-77
2021/06/21 05:01:32;;;;;;;12.68;3.13;;;;;;;;;;4878259;29;20036;-77
2021/06/21 05:04:17;;;;;;;13.10;2.47;;;;;;;;;;4872580;29;20033;-76
2021/06/21 05:07:03;;;;;;;12.38;2.67;;;;;;;;;;4873005;29;20073;-76
2021/06/21 05:09:48;;;;;;;7.70;2.28;;;;;;;;;;4874079;29;20048;-77
2021/06/21 05:12:34;;;;;;;15.18;3.20;;;;;;;;;;4869299;29;20095;-77
2021/06/21 05:15:19;;;;;;;12.30;2.65;;;;;;;;;;4874205;29;20443;-78
2021/06/21 05:18:04;;;;;;;14.57;3.30;;;;;;;;;;4872162;29;20032;-78
2021/06/21 05:20:50;;;;;;;13.95;3.42;;;;;;;;;;4875720;29;20036;-78
2021/06/21 05:23:35;;;;;;;10.68;2.88;;;;;;;;;;4871029;29;20047;-76
2021/06/21 05:26:20;;;;;;;11.32;3.85;;;;;;;;;;4871440;29;20686;-77
2021/06/21 05:29:05;;;;;;;8.70;2.72;;;;;;;;;;4871197;29;20109;-75
2021/06/21 05:31:51;;;;;;;13.88;3.30;;;;;;;;;;4878217;29;20491;-76
2021/06/21 05:34:36;;;;;;;19.95;3.75;;;;;;;;;;4872200;29;20400;-76
2021/06/21 05:37:21;;;;;;;16.48;3.78;;;;;;;;;;4877539;29;20477;-77
2021/06/21 05:40:06;;;;;;;14.57;3.80;;;;;;;;;;4872199;29;20055;-77
2021/06/21 05:42:52;;;;;;;11.73;2.95;;;;;;;;;;4871694;29;20436;-77
2021/06/21 05:45:37;;;;;;;9.00;2.35;;;;;;;;;;4873706;29;20040;-77
2021/06/21 05:48:22;;;;;;;8.23;2.10;;;;;;;;;;4874263;29;20514;-76
2021/06/21 05:51:08;;;;;;;10.68;2.97;;;;;;;;;;4874896;29;20365;-77
2021/06/21 05:53:56;;;;;;;45.70;31.83;;;;;;;;;;4889664;29;20025;-77
2021/06/21 05:56:41;;;;;;;11.77;5.57;;;;;;;;;;4872833;29;20043;-76
2021/06/21 05:59:26;;;;;;;7.35;2.92;;;;;;;;;;4871150;29;20036;-76
2021/06/21 06:02:12;;;;;;;10.45;3.03;;;;;;;;;;4887357;29;20032;-76
2021/06/21 06:04:57;;;;;;;14.50;2.60;;;;;;;;;;4872643;29;20048;-77
2021/06/21 06:07:42;;;;;;;7.60;2.50;;;;;;;;;;4874240;29;20404;-77
2021/06/21 06:10:28;;;;;;;11.20;2.40;;;;;;;;;;4874021;29;20107;-77
2021/06/21 06:13:13;;;;;;;7.88;2.60;;;;;;;;;;4881972;29;20295;-78
2021/06/21 06:15:58;;;;;;;14.57;5.80;;;;;;;;;;4876448;29;20024;-78
2021/06/21 06:18:44;;;;;;;19.83;8.98;;;;;;;;;;4874697;29;20484;-76
2021/06/21 06:21:30;;;;;;;8.85;2.88;;;;;;;;;;4870381;29;20041;-77
2021/06/21 06:24:15;;;;;;;11.82;3.78;;;;;;;;;;4876055;29;20063;-77
2021/06/21 06:27:00;;;;;;;16.25;3.45;;;;;;;;;;4879604;29;20459;-78
2021/06/21 06:29:46;;;;;;;15.60;4.28;;;;;;;;;;4874994;29;20025;-77
2021/06/21 06:32:34;;;;;;;16.83;4.07;;;;;;;;;;4873196;29;20056;-86
2021/06/21 06:35:19;;;;;;;15.77;3.72;;;;;;;;;;4881617;29;20035;-88
2021/06/21 06:38:05;;;;;;;12.02;3.33;;;;;;;;;;4893178;29;20506;-87
2021/06/21 06:40:50;;;;;;;9.95;3.63;;;;;;;;;;4878058;29;20039;-86
2021/06/21 06:43:35;;;;;;;13.02;2.67;;;;;;;;;;4878707;29;20492;-85
2021/06/21 06:46:20;;;;;;;11.15;2.90;;;;;;;;;;4890465;29;20338;-85
2021/06/21 06:49:06;;;;;;;10.27;2.45;;;;;;;;;;4895236;29;20028;-86
2021/06/21 06:51:53;;;;;;;12.07;2.85;;;;;;;;;;4893621;29;20023;-86
2021/06/21 06:57:43;;;;;;;8.43;2.25;;;;;;;;;;4895415;29;20684;-84
2021/06/21 07:00:29;;;;;;;11.77;2.83;;;;;;;;;;4891654;29;20048;-90
2021/06/21 07:03:14;;;;;;;9.27;2.40;;;;;;;;;;4900034;29;20024;-91
2021/06/21 07:05:59;;;;;;;11.48;3.53;;;;;;;;;;4890346;29;20057;-91
2021/06/21 07:08:45;;;;;;;12.57;3.95;;;;;;;;;;4894253;29;20029;-90
2021/06/21 07:11:35;;;;;;;6.43;2.22;;;;;;;;;;4902056;29;20096;-87
2021/06/21 07:14:20;;;;;;;9.75;2.40;;;;;;;;;;4884978;29;20029;-87
2021/06/21 07:17:05;;;;;;;17.92;2.63;;;;;;;;;;4901310;29;20552;-90
2021/06/21 07:19:54;;;;;;;8.23;2.17;;;;;;;;;;4898904;29;20039;-89
2021/06/21 07:22:39;;;;;;;5.57;2.30;;;;;;;;;;4890998;29;20111;-91
2021/06/21 07:25:25;;;;;;;8.20;1.83;;;;;;;;;;4901648;29;20977;-91
2021/06/21 07:28:11;;;;;;;7.50;2.17;;;;;;;;;;4898895;29;20036;-91
2021/06/21 07:30:57;;;;;;;7.05;2.03;;;;;;;;;;4897072;29;20096;-92
2021/06/21 07:33:42;;;;;;;7.95;2.00;;;;;;;;;;4911256;29;20047;-91
2021/06/21 07:36:28;;;;;;;12.73;7.70;;;;;;;;;;4906133;29;20032;-89
2021/06/21 07:39:13;;;;;;;11.48;5.95;;;;;;;;;;4889853;29;20024;-91
2021/06/21 07:41:59;;;;;;;6.45;2.40;;;;;;;;;;4897486;29;20036;-88
2021/06/21 07:44:44;;;;;;;9.23;2.22;;;;;;;;;;4902581;29;20107;-89
2021/06/21 07:47:29;;;;;;;8.65;2.72;;;;;;;;;;4906373;29;20025;-91
2021/06/21 07:50:14;;;;;;;5.43;1.67;;;;;;;;;;4902210;29;20557;-88
2021/06/21 07:53:02;;;;;;;9.43;2.45;;;;;;;;;;4902569;29;20412;-87
2021/06/21 07:55:48;;;;;;;8.55;2.30;;;;;;;;;;4909868;29;20021;-90
2021/06/21 07:58:36;;;;;;;6.20;2.03;;;;;;;;;;4914680;29;20043;-85
2021/06/21 08:01:23;;;;;;;5.47;2.27;;;;;;;;;;4898776;29;20050;-88
2021/06/21 08:04:08;;;;;;;4.22;1.92;;;;;;;;;;4902257;29;20383;-86
2021/06/21 08:06:53;;;;;;;8.93;1.80;;;;;;;;;;4898804;29;20031;-86
2021/06/21 08:09:38;;;;;;;6.35;2.03;;;;;;;;;;4904905;29;20020;-87
2021/06/21 08:12:24;;;;;;;8.05;1.90;;;;;;;;;;4903056;29;20471;-87
2021/06/21 08:15:10;;;;;;;8.65;3.45;;;;;;;;;;4897222;29;20262;-85
2021/06/21 08:17:56;;;;;;;7.38;3.13;;;;;;;;;;4897609;29;20040;-88
2021/06/21 08:20:44;;;;;;;9.98;2.17;;;;;;;;;;4894841;29;20086;-86
2021/06/21 08:23:31;;;;;;;10.68;2.30;;;;;;;;;;4900373;29;20031;-81
2021/06/21 08:26:16;;;;;;;7.93;2.63;;;;;;;;;;4901036;29;20036;-80
2021/06/21 08:29:02;;;;;;;6.28;2.50;;;;;;;;;;4884417;29;20027;-81
2021/06/21 08:31:47;;;;;;;8.45;2.28;;;;;;;;;;4892918;29;20170;-81
2021/06/21 08:34:32;;;;;;;4.88;2.60;;;;;;;;;;4877166;29;20024;-80
2021/06/21 08:37:18;;;;;;;6.82;2.03;;;;;;;;;;4874561;29;20044;-80
2021/06/21 08:40:05;;;;;;;8.80;2.25;;;;;;;;;;4879271;29;20309;-80
2021/06/21 08:42:51;;;;;;;6.53;1.90;;;;;;;;;;4877897;29;20029;-80
2021/06/21 08:45:36;;;;;;;10.75;2.40;;;;;;;;;;4879939;29;20059;-79
2021/06/21 08:48:22;;;;;;;9.20;2.28;;;;;;;;;;4876127;29;20090;-79
2021/06/21 08:51:07;;;;;;;5.05;2.20;;;;;;;;;;4859618;29;20036;-79
2021/06/21 08:53:53;;;;;;;5.35;1.80;;;;;;;;;;4871218;29;20021;-78
2021/06/21 08:56:38;;;;;;;9.40;4.35;;;;;;;;;;4877004;29;20309;-80
2021/06/21 08:59:24;;;;;;;5.95;1.85;;;;;;;;;;4877120;29;20056;-80
2021/06/21 09:02:12;;;;;;;6.03;1.73;;;;;;;;;;4878129;29;20115;-81
2021/06/21 09:04:57;;;;;;;8.45;2.17;;;;;;;;;;4879873;29;20032;-80
2021/06/21 09:07:44;;;;;;;5.68;2.28;;;;;;;;;;4872226;29;20505;-80
2021/06/21 09:10:30;;;;;;;4.72;2.22;;;;;;;;;;4875652;29;20040;-79
2021/06/21 09:13:16;;;;;;;3.85;1.95;;;;;;;;;;4877780;29;20047;-79
2021/06/21 09:16:02;;;;;;;6.20;1.63;;;;;;;;;;4880386;29;20480;-81
2021/06/21 09:18:47;;;;;;;6.05;2.17;;;;;;;;;;4876702;29;20035;-80
2021/06/21 09:21:37;;;;;;;3.05;1.45;;;;;;;;;;4879638;29;20742;-81
2021/06/21 09:24:27;;;;;;;4.10;1.70;;;;;;;;;;4873983;29;20032;-80
2021/06/21 09:27:16;;;;;;;5.13;1.55;;;;;;;;;;4875231;29;20027;-82
2021/06/21 09:30:04;;;;;;;11.82;7.88;;;;;;;;;;4876651;29;20032;-81
2021/06/21 09:32:54;;;;;;;18.85;11.63;;;;;;;;;;4890555;29;20052;-83
2021/06/21 09:35:40;;;;;;;5.68;2.30;;;;;;;;;;4875673;29;20036;-79
2021/06/21 09:38:26;;;;;;;4.72;2.03;;;;;;;;;;4874059;29;20044;-79
2021/06/21 09:41:11;;;;;;;3.05;1.45;;;;;;;;;;4862012;29;20168;-80
2021/06/21 09:43:56;;;;;;;8.20;1.73;;;;;;;;;;4877216;29;20837;-81
2021/06/21 09:46:41;;;;;;;7.88;1.50;;;;;;;;;;4879011;29;20029;-81
2021/06/21 09:49:26;;;;;;;7.40;2.05;;;;;;;;;;4870681;29;20152;-81
2021/06/21 09:52:12;;;;;;;7.47;2.80;;;;;;;;;;4875256;29;20646;-81
2021/06/21 09:54:57;;;;;;;5.38;1.83;;;;;;;;;;4873867;29;20107;-81
2021/06/21 09:57:43;;;;;;;5.82;1.30;;;;;;;;;;4877528;29;20028;-80
2021/06/21 10:00:28;;;;;;;11.05;2.33;;;;;;;;;;4870269;29;20036;-80
2021/06/21 10:03:19;;;;;;;3.33;1.73;;;;;;;;;;4876633;29;20063;-80
2021/06/21 10:06:06;;;;;;;7.05;1.92;;;;;;;;;;4873696;29;20035;-80
2021/06/21 10:08:53;;;;;;;3.70;1.70;;;;;;;;;;4873984;29;20040;-79
2021/06/21 10:11:46;;;;;;;6.45;1.88;;;;;;;;;;4876209;29;20020;-78
2021/06/21 10:14:31;;;;;;;6.75;2.33;;;;;;;;;;4870645;29;20064;-82
2021/06/21 10:17:16;;;;;;;6.30;1.50;;;;;;;;;;4873952;29;20040;-82
2021/06/21 10:20:03;;;;;;;8.18;2.30;;;;;;;;;;4876422;29;20056;-84
2021/06/21 10:22:48;;;;;;;3.97;1.58;;;;;;;;;;4877098;29;20472;-84
2021/06/21 10:25:34;;;;;;;6.53;1.90;;;;;;;;;;4874752;29;20025;-82
2021/06/21 10:28:19;;;;;;;6.72;1.90;;;;;;;;;;4878458;29;20515;-82
2021/06/21 10:31:05;;;;;;;7.20;2.08;;;;;;;;;;4877393;29;20029;-85
2021/06/21 10:33:50;;;;;;;4.40;1.70;;;;;;;;;;4868717;29;20045;-85
2021/06/21 10:36:46;;;;;;;6.95;2.17;;;;;;;;;;4873761;29;20180;-85
2021/06/21 10:39:34;;;;;;;2.22;1.30;;;;;;;;;;4878985;29;20028;-83
2021/06/21 10:42:24;;;;;;;4.90;1.65;;;;;;;;;;4875002;29;20035;-81
2021/06/21 10:45:19;;;;;;;5.53;2.00;;;;;;;;;;4879770;29;20025;-83
2021/06/21 10:48:11;;;;;;;6.07;1.73;;;;;;;;;;4885013;29;20116;-86
2021/06/21 10:50:56;;;;;;;6.85;1.73;;;;;;;;;;4872667;29;20480;-84
2021/06/21 10:53:51;;;;;;;7.35;1.90;;;;;;;;;;4880629;29;20543;-85
2021/06/21 10:56:42;;;;;;;5.95;1.65;;;;;;;;;;4874190;29;20060;-88
2021/06/21 10:59:28;;;;;;;7.55;2.58;;;;;;;;;;4877307;29;20050;-86
2021/06/21 11:02:33;;;;;;;5.43;1.67;;;;;;;;;;4872654;29;20388;-84
2021/06/21 11:05:38;;;;;;;4.82;1.63;;;;;;;;;;4864768;29;20045;-84
2021/06/21 11:08:27;;;;;;;3.30;1.45;;;;;;;;;;4874822;29;20031;-87
2021/06/21 11:11:31;;;;;;;5.63;2.33;;;;;;;;;;4889208;29;20029;-86
2021/06/21 11:14:21;;;;;;;4.03;1.50;;;;;;;;;;4869065;29;20040;-86
2021/06/21 11:17:16;;;;;;;6.28;1.55;;;;;;;;;;4899866;29;20029;-86
2021/06/21 11:20:22;;;;;;;6.18;1.92;;;;;;;;;;4886538;29;20036;-87
2021/06/21 11:23:09;;;;;;;6.82;2.03;;;;;;;;;;4884960;29;20056;-85
2021/06/21 11:25:54;;;;;;;4.20;1.50;;;;;;;;;;4899974;29;20036;-85
2021/06/21 11:28:42;;;;;;;4.10;1.70;;;;;;;;;;4886920;29;20049;-90
2021/06/21 11:31:28;;;;;;;8.43;1.98;;;;;;;;;;4890615;29;20017;-91
2021/06/21 11:34:13;;;;;;;5.15;1.85;;;;;;;;;;4885274;29;20036;-90
2021/06/21 11:37:02;;;;;;;6.85;1.90;;;;;;;;;;4884187;29;20096;-92
2021/06/21 11:39:47;;;;;;;5.90;2.22;;;;;;;;;;4881648;29;20104;-93
2021/06/21 11:42:33;;;;;;;6.35;2.08;;;;;;;;;;4876655;29;20028;-88
2021/06/21 11:45:38;;;;;;;5.22;1.88;;;;;;;;;;4867302;29;20033;-87
2021/06/21 11:48:23;;;;;;;4.90;1.80;;;;;;;;;;4872666;29;20111;-87
2021/06/21 11:51:08;;;;;;;5.72;1.85;;;;;;;;;;4886059;29;20383;-88
2021/06/21 11:53:53;;;;;;;4.28;2.10;;;;;;;;;;4869871;29;20123;-89
2021/06/21 11:56:39;;;;;;;3.53;1.50;;;;;;;;;;4872557;29;20410;-88
2021/06/21 11:59:31;;;;;;;4.32;2.15;;;;;;;;;;4862089;29;20029;-90
2021/06/21 12:02:23;;;;;;;8.23;2.30;;;;;;;;;;4894480;29;20032;-90
2021/06/21 12:05:15;;;;;;;4.70;1.77;;;;;;;;;;4869957;29;20028;-85
2021/06/21 12:08:10;;;;;;;5.50;1.60;;;;;;;;;;4879987;29;20077;-87
2021/06/21 12:10:56;;;;;;;3.95;1.70;;;;;;;;;;4874299;29;20492;-82
2021/06/21 12:13:44;;;;;;;4.80;1.40;;;;;;;;;;4877751;29;20032;-81
2021/06/21 12:16:30;;;;;;;6.65;4.22;;;;;;;;;;4874979;29;20056;-84
2021/06/21 12:19:16;;;;;;;6.07;3.25;;;;;;;;;;4878124;29;20036;-90
2021/06/21 12:22:05;;;;;;;5.03;2.55;;;;;;;;;;4877116;29;20656;-90
2021/06/21 12:24:50;;;;;;;5.35;2.17;;;;;;;;;;4877138;29;20031;-86
2021/06/21 12:27:36;;;;;;;4.93;2.10;;;;;;;;;;4874381;29;20040;-86
2021/06/21 12:30:45;;;;;;;5.35;2.00;;;;;;;;;;4877916;29;20420;-83
2021/06/21 12:33:30;;;;;;;8.25;2.17;;;;;;;;;;4890197;29;20041;-83
2021/06/21 12:36:17;;;;;;;6.78;2.03;;;;;;;;;;4885000;29;20088;-89
2021/06/21 12:39:04;;;;;;;3.30;1.70;;;;;;;;;;4891057;29;20033;-87
2021/06/21 12:41:49;;;;;;;7.90;2.30;;;;;;;;;;4892067;29;20035;-86
2021/06/21 12:44:35;;;;;;;6.68;1.80;;;;;;;;;;4893266;29;20048;-89
2021/06/21 12:47:21;;;;;;;3.58;2.22;;;;;;;;;;4886856;29;20029;-85
2021/06/21 12:50:07;;;;;;;4.60;2.80;;;;;;;;;;4881315;29;20021;-87
2021/06/21 12:52:53;;;;;;;3.45;2.45;;;;;;;;;;4885333;29;20035;-86
2021/06/21 12:55:38;;;;;;;5.80;2.97;;;;;;;;;;4890524;29;20111;-88
2021/06/21 12:58:30;;;;;;;5.82;2.25;;;;;;;;;;4890573;29;20028;-85
2021/06/21 13:01:23;;;;;;;8.55;2.45;;;;;;;;;;4881028;29;20811;-84
2021/06/21 13:04:15;;;;;;;4.10;1.88;;;;;;;;;;4873502;29;20108;-85
2021/06/21 13:07:05;;;;;;;5.53;1.70;;;;;;;;;;4884515;29;20024;-86
2021/06/21 13:09:57;;;;;;;3.47;1.70;;;;;;;;;;4886919;29;20025;-85
2021/06/21 13:12:50;;;;;;;5.20;2.05;;;;;;;;;;4885336;29;20519;-87
2021/06/21 13:15:55;;;;;;;6.10;2.60;;;;;;;;;;4878939;29;20107;-86
2021/06/21 13:18:44;;;;;;;5.05;2.15;;;;;;;;;;4882955;29;20640;-83
2021/06/21 13:21:44;;;;;;;17.52;13.13;;;;;;;;;;4885614;29;20119;-84
2021/06/21 13:24:30;;;;;;;6.28;2.42;;;;;;;;;;4885170;29;20044;-84
2021/06/21 13:27:23;;;;;;;9.25;2.17;;;;;;;;;;4878747;29;20036;-85
2021/06/21 13:30:19;;;;;;;4.53;2.08;;;;;;;;;;4882584;29;20369;-84
2021/06/21 13:33:11;;;;;;;6.32;1.95;;;;;;;;;;4893725;29;20510;-83
2021/06/21 13:35:58;;;;;;;7.30;2.78;;;;;;;;;;4890296;29;20040;-84
2021/06/21 13:38:45;;;;;;;9.15;2.47;;;;;;;;;;4866894;29;20032;-84
2021/06/21 13:41:31;;;;;;;4.22;2.10;;;;;;;;;;4888895;29;20042;-84
2021/06/21 13:44:16;;;;;;;5.65;2.17;;;;;;;;;;4890498;29;20491;-83
2021/06/21 13:47:02;;;;;;;10.32;2.20;;;;;;;;;;4901594;29;20183;-84
2021/06/21 13:49:57;;;;;;;7.97;2.03;;;;;;;;;;4885707;29;20111;-84
2021/06/21 13:52:46;;;;;;;4.55;2.20;;;;;;;;;;4892121;29;20583;-86
2021/06/21 13:55:44;;;;;;;4.65;1.67;;;;;;;;;;4877592;29;20524;-86
2021/06/21 13:58:32;;;;;;;4.50;2.03;;;;;;;;;;4878926;29;20035;-84
2021/06/21 14:01:18;;;;;;;7.22;4.95;;;;;;;;;;4885893;29;20039;-85
2021/06/21 14:04:04;;;;;;;4.60;2.25;;;;;;;;;;4877122;29;20126;-87
2021/06/21 14:06:49;;;;;;;5.18;2.08;;;;;;;;;;4888680;29;20066;-87
2021/06/21 14:09:35;;;;;;;7.22;2.15;;;;;;;;;;4874990;29;20126;-85
2021/06/21 14:12:21;;;;;;;7.13;2.20;;;;;;;;;;4884362;29;20024;-83
2021/06/21 14:15:06;;;;;;;5.35;1.92;;;;;;;;;;4881459;29;20113;-82
2021/06/21 14:17:52;;;;;;;7.30;2.05;;;;;;;;;;4891748;29;20137;-82
2021/06/21 14:20:37;;;;;;;5.50;2.88;;;;;;;;;;4890157;29;20028;-84
2021/06/21 14:23:23;;;;;;;5.68;2.13;;;;;;;;;;4886592;29;20103;-83
2021/06/21 14:26:08;;;;;;;5.63;2.20;;;;;;;;;;4884503;29;20063;-77
2021/06/21 14:28:54;;;;;;;6.32;2.38;;;;;;;;;;4886142;29;20558;-81
2021/06/21 14:31:39;;;;;;;4.28;1.92;;;;;;;;;;4876911;29;20593;-76
2021/06/21 14:34:24;;;;;;;4.15;1.75;;;;;;;;;;4867341;29;20738;-75
2021/06/21 14:37:09;;;;;;;4.30;1.90;;;;;;;;;;4862553;29;20028;-76
2021/06/21 14:39:57;;;;;;;4.63;1.98;;;;;;;;;;4866718;29;20031;-77
2021/06/21 14:42:42;;;;;;;4.90;1.92;;;;;;;;;;4869110;29;20746;-78
2021/06/21 14:45:27;;;;;;;4.63;2.15;;;;;;;;;;4864092;29;20043;-79
2021/06/21 14:48:14;;;;;;;10.32;7.25;;;;;;;;;;4865548;29;20029;-80
2021/06/21 14:51:01;;;;;;;5.50;3.30;;;;;;;;;;4857612;29;20028;-77
2021/06/21 14:53:46;;;;;;;4.88;2.55;;;;;;;;;;4877015;29;20388;-77
2021/06/21 14:56:35;;;;;;;6.20;2.08;;;;;;;;;;4865991;29;20024;-80
2021/06/21 14:59:20;;;;;;;4.53;2.03;;;;;;;;;;4861035;29;20028;-79
2021/06/21 15:02:05;;;;;;;5.60;2.45;;;;;;;;;;4863091;29;20028;-79
2021/06/21 15:04:51;;;;;;;2.47;1.60;;;;;;;;;;4877214;29;20119;-80
2021/06/21 15:07:41;;;;;;;8.27;1.83;;;;;;;;;;4869602;29;20574;-89
2021/06/21 15:10:27;;;;;;;3.42;1.60;;;;;;;;;;4873388;29;20483;-88
2021/06/21 15:13:13;;;;;;;7.32;3.17;;;;;;;;;;4875652;29;20013;-87
2021/06/21 15:15:58;;;;;;;6.00;2.90;;;;;;;;;;4878213;29;20433;-87
2021/06/21 15:18:46;;;;;;;3.20;1.88;;;;;;;;;;4900816;29;20447;-88
2021/06/21 15:21:32;;;;;;;3.80;2.00;;;;;;;;;;4859947;29;20033;-88
2021/06/21 15:24:17;;;;;;;7.38;1.85;;;;;;;;;;4874074;29;20084;-86
2021/06/21 15:27:02;;;;;;;10.18;2.03;;;;;;;;;;4878643;29;20455;-86
2021/06/21 15:29:48;;;;;;;4.75;1.80;;;;;;;;;;4872801;29;20436;-87
2021/06/21 15:32:33;;;;;;;2.90;1.50;;;;;;;;;;4875802;29;20036;-88
2021/06/21 15:35:20;;;;;;;4.97;1.95;;;;;;;;;;4886804;29;20032;-91
2021/06/21 15:38:05;;;;;;;5.70;2.17;;;;;;;;;;4891398;29;20048;-87
2021/06/21 15:40:50;;;;;;;5.25;1.80;;;;;;;;;;4896717;29;20095;-87
2021/06/21 15:43:36;;;;;;;4.00;2.20;;;;;;;;;;4883489;29;20130;-92
2021/06/21 15:46:21;;;;;;;7.03;1.85;;;;;;;;;;4888720;29;20334;-89
2021/06/21 15:49:06;;;;;;;4.50;2.10;;;;;;;;;;4883125;29;20056;-89
2021/06/21 15:51:52;;;;;;;3.88;2.00;;;;;;;;;;4892370;29;20020;-89
2021/06/21 15:54:37;;;;;;;3.65;2.33;;;;;;;;;;4892925;29;20032;-90
2021/06/21 15:57:24;;;;;;;10.23;2.33;;;;;;;;;;4892714;29;20464;-86
2021/06/21 16:00:10;;;;;;;5.15;1.95;;;;;;;;;;4890312;29;20031;-90
2021/06/21 16:02:56;;;;;;;4.97;1.95;;;;;;;;;;4891496;29;20024;-88
2021/06/21 16:05:44;;;;;;;6.03;2.08;;;;;;;;;;4897507;29;20028;-89
2021/06/21 16:08:29;;;;;;;6.55;2.17;;;;;;;;;;4874532;29;20036;-89
2021/06/21 16:11:14;;;;;;;5.05;1.73;;;;;;;;;;4896285;29;20027;-87
2021/06/21 16:14:00;;;;;;;5.53;2.10;;;;;;;;;;4906139;29;20115;-89
2021/06/21 16:16:45;;;;;;;5.97;2.20;;;;;;;;;;4898323;29;20365;-88
2021/06/21 16:19:30;;;;;;;11.55;2.25;;;;;;;;;;4895051;29;20083;-88
2021/06/21 16:22:16;;;;;;;4.43;2.10;;;;;;;;;;4885622;29;20032;-88
2021/06/21 16:25:02;;;;;;;4.93;2.40;;;;;;;;;;4892273;29;20031;-87
2021/06/21 16:27:48;;;;;;;6.55;2.28;;;;;;;;;;4902790;29;20079;-86
2021/06/21 16:30:34;;;;;;;3.72;2.00;;;;;;;;;;4919430;29;20444;-86
2021/06/21 16:33:19;;;;;;;2.72;1.40;;;;;;;;;;4902330;29;20044;-88
2021/06/21 16:36:04;;;;;;;4.88;1.95;;;;;;;;;;4882840;29;20024;-88
2021/06/21 16:38:51;;;;;;;5.13;1.98;;;;;;;;;;4896133;29;20028;-84